Terminal Aerodrome Forecast
Issued by NWS

Home | Current Version | Previous Version | Text Only | Print | Product List | Glossary On
Versions: 1 2 3 4 5 6 7 8 9 10 11 12 13 14 15 16 17 18 19 20
000
FTUS45 KABQ 011100 RRA
TAFTCC
TAF
KTCC 011142Z 0112/0212 VRB05KT P6SM OVC007
     FM011800 20008KT P6SM SCT015
     FM012100 08009KT 4SM BR OVC015
     FM020100 05006KT 2SM -FZDZ BR OVC007=

USA.gov is the U.S. government's official web portal to all federal, state and local government web resources and services.